sensor_id;sensor_type;location;lat;lon;timestamp;P1;durP1;ratioP1;P2;durP2;ratioP2
83423;SDS011;73355;49.044;8.686;2024-01-07T00:02:11;8.80;;;3.87;;
83423;SDS011;73355;49.044;8.686;2024-01-07T00:04:37;7.57;;;3.77;;
83423;SDS011;73355;49.044;8.686;2024-01-07T00:07:03;9.65;;;4.57;;
83423;SDS011;73355;49.044;8.686;2024-01-07T00:09:29;9.27;;;4.28;;
83423;SDS011;73355;49.044;8.686;2024-01-07T00:11:55;9.37;;;4.37;;
83423;SDS011;73355;49.044;8.686;2024-01-07T00:14:20;9.57;;;4.03;;
83423;SDS011;73355;49.044;8.686;2024-01-07T00:16:45;9.30;;;4.37;;
83423;SDS011;73355;49.044;8.686;2024-01-07T00:19:11;10.40;;;4.55;;
83423;SDS011;73355;49.044;8.686;2024-01-07T00:21:36;9.95;;;4.65;;
83423;SDS011;73355;49.044;8.686;2024-01-07T00:24:01;13.53;;;5.43;;
83423;SDS011;73355;49.044;8.686;2024-01-07T00:26:26;11.47;;;4.97;;
83423;SDS011;73355;49.044;8.686;2024-01-07T00:28:52;12.27;;;4.63;;
83423;SDS011;73355;49.044;8.686;2024-01-07T00:31:17;13.07;;;4.90;;
83423;SDS011;73355;49.044;8.686;2024-01-07T00:33:42;11.00;;;4.90;;
83423;SDS011;73355;49.044;8.686;2024-01-07T00:36:08;9.07;;;4.07;;
83423;SDS011;73355;49.044;8.686;2024-01-07T00:38:33;14.20;;;5.22;;
83423;SDS011;73355;49.044;8.686;2024-01-07T00:40:59;9.75;;;4.80;;
83423;SDS011;73355;49.044;8.686;2024-01-07T00:43:24;12.77;;;4.90;;
83423;SDS011;73355;49.044;8.686;2024-01-07T00:45:49;10.57;;;4.33;;
83423;SDS011;73355;49.044;8.686;2024-01-07T00:48:15;10.35;;;4.20;;
83423;SDS011;73355;49.044;8.686;2024-01-07T00:50:41;10.43;;;4.47;;
83423;SDS011;73355;49.044;8.686;2024-01-07T00:53:06;11.82;;;4.43;;
83423;SDS011;73355;49.044;8.686;2024-01-07T00:55:32;10.43;;;3.78;;
83423;SDS011;73355;49.044;8.686;2024-01-07T00:57:57;9.33;;;4.27;;
83423;SDS011;73355;49.044;8.686;2024-01-07T01:00:22;11.67;;;4.67;;
83423;SDS011;73355;49.044;8.686;2024-01-07T01:02:48;10.55;;;4.72;;
83423;SDS011;73355;49.044;8.686;2024-01-07T01:05:13;12.23;;;5.13;;
83423;SDS011;73355;49.044;8.686;2024-01-07T01:07:38;10.97;;;4.70;;
83423;SDS011;73355;49.044;8.686;2024-01-07T01:10:04;11.87;;;4.70;;
83423;SDS011;73355;49.044;8.686;2024-01-07T01:12:30;13.23;;;4.28;;
83423;SDS011;73355;49.044;8.686;2024-01-07T01:14:55;11.77;;;4.77;;
83423;SDS011;73355;49.044;8.686;2024-01-07T01:17:20;12.13;;;5.30;;
83423;SDS011;73355;49.044;8.686;2024-01-07T01:19:46;10.87;;;4.60;;
83423;SDS011;73355;49.044;8.686;2024-01-07T01:22:11;12.47;;;5.73;;
83423;SDS011;73355;49.044;8.686;2024-01-07T01:24:36;11.45;;;4.65;;
83423;SDS011;73355;49.044;8.686;2024-01-07T01:27:02;12.80;;;4.80;;
83423;SDS011;73355;49.044;8.686;2024-01-07T01:29:27;14.10;;;5.00;;
83423;SDS011;73355;49.044;8.686;2024-01-07T01:31:52;11.55;;;5.00;;
83423;SDS011;73355;49.044;8.686;2024-01-07T01:34:18;13.87;;;5.73;;
83423;SDS011;73355;49.044;8.686;2024-01-07T01:36:43;11.60;;;4.80;;
83423;SDS011;73355;49.044;8.686;2024-01-07T01:39:08;14.20;;;5.00;;
83423;SDS011;73355;49.044;8.686;2024-01-07T01:41:33;16.73;;;5.47;;
83423;SDS011;73355;49.044;8.686;2024-01-07T01:43:59;13.03;;;4.80;;
83423;SDS011;73355;49.044;8.686;2024-01-07T01:46:25;12.13;;;5.30;;
83423;SDS011;73355;49.044;8.686;2024-01-07T01:48:52;12.15;;;5.22;;
83423;SDS011;73355;49.044;8.686;2024-01-07T01:51:17;10.32;;;3.92;;
83423;SDS011;73355;49.044;8.686;2024-01-07T01:53:44;6.85;;;3.20;;
83423;SDS011;73355;49.044;8.686;2024-01-07T01:58:36;11.25;;;4.65;;
83423;SDS011;73355;49.044;8.686;2024-01-07T02:01:02;11.82;;;4.30;;
83423;SDS011;73355;49.044;8.686;2024-01-07T02:05:53;9.43;;;3.33;;
83423;SDS011;73355;49.044;8.686;2024-01-07T02:08:20;10.18;;;4.15;;
83423;SDS011;73355;49.044;8.686;2024-01-07T02:10:46;10.95;;;4.25;;
83423;SDS011;73355;49.044;8.686;2024-01-07T02:13:11;9.93;;;3.90;;
83423;SDS011;73355;49.044;8.686;2024-01-07T02:15:36;10.37;;;3.63;;
83423;SDS011;73355;49.044;8.686;2024-01-07T02:18:02;11.55;;;4.32;;
83423;SDS011;73355;49.044;8.686;2024-01-07T02:20:27;12.15;;;4.40;;
83423;SDS011;73355;49.044;8.686;2024-01-07T02:22:52;10.73;;;3.70;;
83423;SDS011;73355;49.044;8.686;2024-01-07T02:25:18;9.55;;;2.90;;
83423;SDS011;73355;49.044;8.686;2024-01-07T02:27:44;8.90;;;3.25;;
83423;SDS011;73355;49.044;8.686;2024-01-07T02:30:09;8.97;;;4.00;;
83423;SDS011;73355;49.044;8.686;2024-01-07T02:32:35;8.68;;;3.53;;
83423;SDS011;73355;49.044;8.686;2024-01-07T02:35:02;10.50;;;3.70;;
83423;SDS011;73355;49.044;8.686;2024-01-07T02:37:27;9.27;;;3.78;;
83423;SDS011;73355;49.044;8.686;2024-01-07T02:39:53;6.90;;;3.10;;
83423;SDS011;73355;49.044;8.686;2024-01-07T02:42:18;5.38;;;2.30;;
83423;SDS011;73355;49.044;8.686;2024-01-07T02:44:43;10.70;;;4.27;;
83423;SDS011;73355;49.044;8.686;2024-01-07T02:47:09;8.93;;;3.42;;
83423;SDS011;73355;49.044;8.686;2024-01-07T02:49:34;8.90;;;3.50;;
83423;SDS011;73355;49.044;8.686;2024-01-07T02:51:59;9.67;;;3.67;;
83423;SDS011;73355;49.044;8.686;2024-01-07T02:54:24;11.57;;;3.97;;
83423;SDS011;73355;49.044;8.686;2024-01-07T02:56:50;12.25;;;3.90;;
83423;SDS011;73355;49.044;8.686;2024-01-07T02:59:15;7.97;;;3.93;;
83423;SDS011;73355;49.044;8.686;2024-01-07T03:01:40;9.60;;;3.58;;
83423;SDS011;73355;49.044;8.686;2024-01-07T03:04:07;9.15;;;3.35;;
83423;SDS011;73355;49.044;8.686;2024-01-07T03:06:35;7.00;;;2.92;;
83423;SDS011;73355;49.044;8.686;2024-01-07T03:09:00;9.30;;;3.85;;
83423;SDS011;73355;49.044;8.686;2024-01-07T03:11:26;10.45;;;3.70;;
83423;SDS011;73355;49.044;8.686;2024-01-07T03:13:51;5.13;;;2.27;;
83423;SDS011;73355;49.044;8.686;2024-01-07T03:16:23;8.82;;;3.50;;
83423;SDS011;73355;49.044;8.686;2024-01-07T03:18:49;11.05;;;4.03;;
83423;SDS011;73355;49.044;8.686;2024-01-07T03:21:18;9.13;;;3.92;;
83423;SDS011;73355;49.044;8.686;2024-01-07T03:23:45;9.07;;;3.38;;
83423;SDS011;73355;49.044;8.686;2024-01-07T03:26:10;7.60;;;2.85;;
83423;SDS011;73355;49.044;8.686;2024-01-07T03:28:36;7.20;;;3.25;;
83423;SDS011;73355;49.044;8.686;2024-01-07T03:31:08;7.90;;;3.10;;
83423;SDS011;73355;49.044;8.686;2024-01-07T03:33:37;8.52;;;3.40;;
83423;SDS011;73355;49.044;8.686;2024-01-07T03:36:06;7.75;;;3.20;;
83423;SDS011;73355;49.044;8.686;2024-01-07T03:38:36;8.05;;;3.00;;
83423;SDS011;73355;49.044;8.686;2024-01-07T03:41:02;8.07;;;3.10;;
83423;SDS011;73355;49.044;8.686;2024-01-07T03:43:27;8.10;;;3.17;;
83423;SDS011;73355;49.044;8.686;2024-01-07T03:45:53;6.38;;;2.85;;
83423;SDS011;73355;49.044;8.686;2024-01-07T03:48:18;6.47;;;2.57;;
83423;SDS011;73355;49.044;8.686;2024-01-07T03:50:44;7.22;;;2.63;;
83423;SDS011;73355;49.044;8.686;2024-01-07T03:53:09;5.67;;;2.30;;
83423;SDS011;73355;49.044;8.686;2024-01-07T03:55:34;4.67;;;2.30;;
83423;SDS011;73355;49.044;8.686;2024-01-07T03:57:59;6.40;;;2.57;;
83423;SDS011;73355;49.044;8.686;2024-01-07T04:00:25;5.60;;;2.43;;
83423;SDS011;73355;49.044;8.686;2024-01-07T04:02:50;5.40;;;2.57;;
83423;SDS011;73355;49.044;8.686;2024-01-07T04:05:15;5.73;;;2.30;;
83423;SDS011;73355;49.044;8.686;2024-01-07T04:07:40;7.33;;;4.20;;
83423;SDS011;73355;49.044;8.686;2024-01-07T04:10:06;5.83;;;2.43;;
83423;SDS011;73355;49.044;8.686;2024-01-07T04:12:34;5.95;;;1.92;;
83423;SDS011;73355;49.044;8.686;2024-01-07T04:14:59;4.32;;;2.00;;
83423;SDS011;73355;49.044;8.686;2024-01-07T04:17:24;6.55;;;2.30;;
83423;SDS011;73355;49.044;8.686;2024-01-07T04:19:50;2.85;;;1.33;;
83423;SDS011;73355;49.044;8.686;2024-01-07T04:22:16;6.63;;;2.22;;
83423;SDS011;73355;49.044;8.686;2024-01-07T04:24:41;5.60;;;2.80;;
83423;SDS011;73355;49.044;8.686;2024-01-07T04:27:07;5.43;;;2.20;;
83423;SDS011;73355;49.044;8.686;2024-01-07T04:29:32;4.78;;;2.20;;
83423;SDS011;73355;49.044;8.686;2024-01-07T04:31:57;3.73;;;2.33;;
83423;SDS011;73355;49.044;8.686;2024-01-07T04:34:23;4.40;;;2.08;;
83423;SDS011;73355;49.044;8.686;2024-01-07T04:36:49;5.82;;;1.88;;
83423;SDS011;73355;49.044;8.686;2024-01-07T04:39:14;7.22;;;2.78;;
83423;SDS011;73355;49.044;8.686;2024-01-07T04:41:40;3.73;;;1.97;;
83423;SDS011;73355;49.044;8.686;2024-01-07T04:44:05;7.27;;;2.10;;
83423;SDS011;73355;49.044;8.686;2024-01-07T04:46:33;4.07;;;2.13;;
83423;SDS011;73355;49.044;8.686;2024-01-07T04:49:00;8.35;;;2.70;;
83423;SDS011;73355;49.044;8.686;2024-01-07T04:51:25;6.23;;;2.53;;
83423;SDS011;73355;49.044;8.686;2024-01-07T04:53:50;6.07;;;2.83;;
83423;SDS011;73355;49.044;8.686;2024-01-07T04:56:16;6.97;;;2.83;;
83423;SDS011;73355;49.044;8.686;2024-01-07T04:58:41;8.73;;;3.33;;
83423;SDS011;73355;49.044;8.686;2024-01-07T05:01:06;4.53;;;2.20;;
83423;SDS011;73355;49.044;8.686;2024-01-07T05:03:31;3.90;;;1.60;;
83423;SDS011;73355;49.044;8.686;2024-01-07T05:05:57;5.80;;;2.28;;
83423;SDS011;73355;49.044;8.686;2024-01-07T05:08:22;7.93;;;3.07;;
83423;SDS011;73355;49.044;8.686;2024-01-07T05:10:47;7.83;;;2.70;;
83423;SDS011;73355;49.044;8.686;2024-01-07T05:13:13;5.47;;;2.40;;
83423;SDS011;73355;49.044;8.686;2024-01-07T05:15:38;9.82;;;2.85;;
83423;SDS011;73355;49.044;8.686;2024-01-07T05:18:06;4.80;;;2.47;;
83423;SDS011;73355;49.044;8.686;2024-01-07T05:20:33;6.60;;;2.95;;
83423;SDS011;73355;49.044;8.686;2024-01-07T05:22:58;5.40;;;2.17;;
83423;SDS011;73355;49.044;8.686;2024-01-07T05:25:24;7.10;;;2.73;;
83423;SDS011;73355;49.044;8.686;2024-01-07T05:27:49;6.63;;;2.90;;
83423;SDS011;73355;49.044;8.686;2024-01-07T05:30:14;7.07;;;2.78;;
83423;SDS011;73355;49.044;8.686;2024-01-07T05:32:40;5.70;;;2.80;;
83423;SDS011;73355;49.044;8.686;2024-01-07T05:35:05;5.40;;;2.37;;
83423;SDS011;73355;49.044;8.686;2024-01-07T05:39:57;7.30;;;2.93;;
83423;SDS011;73355;49.044;8.686;2024-01-07T05:42:22;4.88;;;2.22;;
83423;SDS011;73355;49.044;8.686;2024-01-07T05:44:48;4.07;;;2.15;;
83423;SDS011;73355;49.044;8.686;2024-01-07T05:47:13;6.10;;;2.85;;
83423;SDS011;73355;49.044;8.686;2024-01-07T05:49:38;5.17;;;2.23;;
83423;SDS011;73355;49.044;8.686;2024-01-07T05:52:04;7.07;;;2.33;;
83423;SDS011;73355;49.044;8.686;2024-01-07T05:54:29;6.05;;;3.17;;
83423;SDS011;73355;49.044;8.686;2024-01-07T05:56:54;7.87;;;3.30;;
83423;SDS011;73355;49.044;8.686;2024-01-07T05:59:20;8.32;;;2.88;;
83423;SDS011;73355;49.044;8.686;2024-01-07T06:01:45;7.33;;;3.00;;
83423;SDS011;73355;49.044;8.686;2024-01-07T06:04:10;5.97;;;2.65;;
83423;SDS011;73355;49.044;8.686;2024-01-07T06:06:36;6.88;;;3.17;;
83423;SDS011;73355;49.044;8.686;2024-01-07T06:09:01;8.37;;;3.50;;
83423;SDS011;73355;49.044;8.686;2024-01-07T06:11:27;9.45;;;3.35;;
83423;SDS011;73355;49.044;8.686;2024-01-07T06:13:53;7.88;;;3.45;;
83423;SDS011;73355;49.044;8.686;2024-01-07T06:16:18;7.05;;;3.42;;
83423;SDS011;73355;49.044;8.686;2024-01-07T06:18:43;6.07;;;2.70;;
83423;SDS011;73355;49.044;8.686;2024-01-07T06:21:09;8.07;;;3.30;;
83423;SDS011;73355;49.044;8.686;2024-01-07T06:23:34;6.53;;;2.97;;
83423;SDS011;73355;49.044;8.686;2024-01-07T06:26:02;7.30;;;3.10;;
83423;SDS011;73355;49.044;8.686;2024-01-07T06:28:28;7.57;;;2.85;;
83423;SDS011;73355;49.044;8.686;2024-01-07T06:30:53;3.28;;;1.80;;
83423;SDS011;73355;49.044;8.686;2024-01-07T06:33:19;7.40;;;2.97;;
83423;SDS011;73355;49.044;8.686;2024-01-07T06:35:45;4.07;;;2.08;;
83423;SDS011;73355;49.044;8.686;2024-01-07T06:38:11;6.88;;;2.85;;
83423;SDS011;73355;49.044;8.686;2024-01-07T06:40:36;7.18;;;2.85;;
83423;SDS011;73355;49.044;8.686;2024-01-07T06:43:01;8.27;;;3.43;;
83423;SDS011;73355;49.044;8.686;2024-01-07T06:45:27;8.03;;;3.10;;
83423;SDS011;73355;49.044;8.686;2024-01-07T06:47:52;6.32;;;3.03;;
83423;SDS011;73355;49.044;8.686;2024-01-07T06:50:18;4.85;;;1.95;;
83423;SDS011;73355;49.044;8.686;2024-01-07T06:52:44;8.98;;;3.40;;
83423;SDS011;73355;49.044;8.686;2024-01-07T06:55:10;6.40;;;3.00;;
83423;SDS011;73355;49.044;8.686;2024-01-07T06:57:35;6.63;;;2.50;;
83423;SDS011;73355;49.044;8.686;2024-01-07T07:00:01;7.07;;;3.00;;
83423;SDS011;73355;49.044;8.686;2024-01-07T07:02:26;4.10;;;2.17;;
83423;SDS011;73355;49.044;8.686;2024-01-07T07:04:52;7.73;;;3.03;;
83423;SDS011;73355;49.044;8.686;2024-01-07T07:07:17;8.47;;;3.00;;
83423;SDS011;73355;49.044;8.686;2024-01-07T07:09:42;8.38;;;3.45;;
83423;SDS011;73355;49.044;8.686;2024-01-07T07:12:08;5.67;;;2.37;;
83423;SDS011;73355;49.044;8.686;2024-01-07T07:14:33;7.38;;;2.67;;
83423;SDS011;73355;49.044;8.686;2024-01-07T07:16:59;6.90;;;3.22;;
83423;SDS011;73355;49.044;8.686;2024-01-07T07:19:25;8.18;;;3.17;;
83423;SDS011;73355;49.044;8.686;2024-01-07T07:21:50;7.30;;;3.30;;
83423;SDS011;73355;49.044;8.686;2024-01-07T07:24:15;8.47;;;3.07;;
83423;SDS011;73355;49.044;8.686;2024-01-07T07:26:41;9.88;;;3.53;;
83423;SDS011;73355;49.044;8.686;2024-01-07T07:29:07;7.07;;;3.15;;
83423;SDS011;73355;49.044;8.686;2024-01-07T07:31:34;6.45;;;3.20;;
83423;SDS011;73355;49.044;8.686;2024-01-07T07:34:00;8.95;;;3.75;;
83423;SDS011;73355;49.044;8.686;2024-01-07T07:36:25;8.23;;;3.10;;
83423;SDS011;73355;49.044;8.686;2024-01-07T07:38:51;6.72;;;3.40;;
83423;SDS011;73355;49.044;8.686;2024-01-07T07:41:16;7.88;;;3.30;;
83423;SDS011;73355;49.044;8.686;2024-01-07T07:43:42;6.40;;;3.03;;
83423;SDS011;73355;49.044;8.686;2024-01-07T07:46:07;6.50;;;3.28;;
83423;SDS011;73355;49.044;8.686;2024-01-07T07:48:32;8.73;;;3.20;;
83423;SDS011;73355;49.044;8.686;2024-01-07T07:50:57;6.87;;;2.93;;
83423;SDS011;73355;49.044;8.686;2024-01-07T07:53:23;6.73;;;3.07;;
83423;SDS011;73355;49.044;8.686;2024-01-07T07:55:48;8.47;;;3.30;;
83423;SDS011;73355;49.044;8.686;2024-01-07T07:58:14;5.75;;;2.70;;
83423;SDS011;73355;49.044;8.686;2024-01-07T08:00:40;8.13;;;2.90;;
83423;SDS011;73355;49.044;8.686;2024-01-07T08:03:05;5.43;;;2.70;;
83423;SDS011;73355;49.044;8.686;2024-01-07T08:05:31;6.90;;;3.43;;
83423;SDS011;73355;49.044;8.686;2024-01-07T08:07:56;6.05;;;3.05;;
83423;SDS011;73355;49.044;8.686;2024-01-07T08:10:22;6.90;;;3.13;;
83423;SDS011;73355;49.044;8.686;2024-01-07T08:12:47;6.32;;;2.42;;
83423;SDS011;73355;49.044;8.686;2024-01-07T08:15:14;6.60;;;3.25;;
83423;SDS011;73355;49.044;8.686;2024-01-07T08:17:40;5.85;;;3.00;;
83423;SDS011;73355;49.044;8.686;2024-01-07T08:20:05;7.00;;;3.05;;
83423;SDS011;73355;49.044;8.686;2024-01-07T08:22:31;5.78;;;2.78;;
83423;SDS011;73355;49.044;8.686;2024-01-07T08:24:56;6.72;;;3.13;;
83423;SDS011;73355;49.044;8.686;2024-01-07T08:27:22;6.70;;;2.95;;
83423;SDS011;73355;49.044;8.686;2024-01-07T08:29:47;7.13;;;2.97;;
83423;SDS011;73355;49.044;8.686;2024-01-07T08:32:12;7.17;;;3.57;;
83423;SDS011;73355;49.044;8.686;2024-01-07T08:34:38;6.47;;;3.08;;
83423;SDS011;73355;49.044;8.686;2024-01-07T08:37:04;10.50;;;3.38;;
83423;SDS011;73355;49.044;8.686;2024-01-07T08:39:30;8.32;;;4.60;;
83423;SDS011;73355;49.044;8.686;2024-01-07T08:41:55;6.97;;;3.65;;
83423;SDS011;73355;49.044;8.686;2024-01-07T08:44:21;7.47;;;3.53;;
83423;SDS011;73355;49.044;8.686;2024-01-07T08:46:46;7.00;;;3.40;;
83423;SDS011;73355;49.044;8.686;2024-01-07T08:49:12;9.43;;;4.00;;
83423;SDS011;73355;49.044;8.686;2024-01-07T08:51:38;8.38;;;3.83;;
83423;SDS011;73355;49.044;8.686;2024-01-07T08:54:04;13.15;;;4.93;;
83423;SDS011;73355;49.044;8.686;2024-01-07T08:56:29;8.18;;;3.80;;
83423;SDS011;73355;49.044;8.686;2024-01-07T08:58:55;6.95;;;3.22;;
83423;SDS011;73355;49.044;8.686;2024-01-07T09:01:20;5.50;;;3.03;;
83423;SDS011;73355;49.044;8.686;2024-01-07T09:03:45;7.03;;;3.17;;
83423;SDS011;73355;49.044;8.686;2024-01-07T09:06:11;7.60;;;3.53;;
83423;SDS011;73355;49.044;8.686;2024-01-07T09:08:36;5.73;;;3.17;;
83423;SDS011;73355;49.044;8.686;2024-01-07T09:11:03;5.72;;;3.10;;
83423;SDS011;73355;49.044;8.686;2024-01-07T09:13:31;6.53;;;3.28;;
83423;SDS011;73355;49.044;8.686;2024-01-07T09:15:56;6.33;;;3.17;;
83423;SDS011;73355;49.044;8.686;2024-01-07T09:18:24;7.50;;;3.40;;
83423;SDS011;73355;49.044;8.686;2024-01-07T09:20:49;5.80;;;3.30;;
83423;SDS011;73355;49.044;8.686;2024-01-07T09:23:15;5.47;;;2.90;;
83423;SDS011;73355;49.044;8.686;2024-01-07T09:25:40;4.47;;;2.47;;
83423;SDS011;73355;49.044;8.686;2024-01-07T09:28:06;5.68;;;3.13;;
83423;SDS011;73355;49.044;8.686;2024-01-07T09:30:32;5.07;;;3.00;;
83423;SDS011;73355;49.044;8.686;2024-01-07T09:32:57;6.07;;;2.90;;
83423;SDS011;73355;49.044;8.686;2024-01-07T09:35:22;4.63;;;2.80;;
83423;SDS011;73355;49.044;8.686;2024-01-07T09:37:48;6.60;;;2.80;;
83423;SDS011;73355;49.044;8.686;2024-01-07T09:40:16;5.30;;;2.67;;
83423;SDS011;73355;49.044;8.686;2024-01-07T09:42:43;6.80;;;3.13;;
83423;SDS011;73355;49.044;8.686;2024-01-07T09:45:09;5.55;;;2.85;;
83423;SDS011;73355;49.044;8.686;2024-01-07T09:47:37;7.35;;;2.80;;
83423;SDS011;73355;49.044;8.686;2024-01-07T09:50:05;5.78;;;3.00;;
83423;SDS011;73355;49.044;8.686;2024-01-07T09:52:31;4.50;;;2.20;;
83423;SDS011;73355;49.044;8.686;2024-01-07T09:54:58;4.03;;;2.35;;
83423;SDS011;73355;49.044;8.686;2024-01-07T09:57:25;6.05;;;2.90;;
83423;SDS011;73355;49.044;8.686;2024-01-07T09:59:50;10.85;;;5.22;;
83423;SDS011;73355;49.044;8.686;2024-01-07T10:02:16;8.43;;;4.30;;
83423;SDS011;73355;49.044;8.686;2024-01-07T10:04:41;7.38;;;2.78;;
83423;SDS011;73355;49.044;8.686;2024-01-07T10:07:08;4.90;;;2.58;;
83423;SDS011;73355;49.044;8.686;2024-01-07T10:09:33;4.35;;;2.50;;
83423;SDS011;73355;49.044;8.686;2024-01-07T10:11:58;5.03;;;2.35;;
83423;SDS011;73355;49.044;8.686;2024-01-07T10:14:24;6.03;;;3.42;;
83423;SDS011;73355;49.044;8.686;2024-01-07T10:19:22;3.83;;;2.23;;
83423;SDS011;73355;49.044;8.686;2024-01-07T10:22:02;2.72;;;1.83;;
83423;SDS011;73355;49.044;8.686;2024-01-07T10:25:02;5.35;;;3.40;;
83423;SDS011;73355;49.044;8.686;2024-01-07T10:27:22;3.92;;;2.38;;
83423;SDS011;73355;49.044;8.686;2024-01-07T10:29:47;5.95;;;3.13;;
83423;SDS011;73355;49.044;8.686;2024-01-07T10:32:17;8.73;;;5.13;;
83423;SDS011;73355;49.044;8.686;2024-01-07T10:34:44;3.90;;;2.53;;
83423;SDS011;73355;49.044;8.686;2024-01-07T10:37:12;4.20;;;2.45;;
83423;SDS011;73355;49.044;8.686;2024-01-07T10:39:38;4.03;;;2.22;;
83423;SDS011;73355;49.044;8.686;2024-01-07T10:42:03;3.97;;;2.42;;
83423;SDS011;73355;49.044;8.686;2024-01-07T10:44:30;6.28;;;2.88;;
83423;SDS011;73355;49.044;8.686;2024-01-07T10:46:56;5.18;;;2.20;;
83423;SDS011;73355;49.044;8.686;2024-01-07T10:49:23;4.60;;;2.25;;
83423;SDS011;73355;49.044;8.686;2024-01-07T10:54:32;4.85;;;2.38;;
83423;SDS011;73355;49.044;8.686;2024-01-07T10:56:59;5.95;;;2.50;;
83423;SDS011;73355;49.044;8.686;2024-01-07T10:59:29;3.72;;;2.10;;
83423;SDS011;73355;49.044;8.686;2024-01-07T11:01:57;4.43;;;2.00;;
83423;SDS011;73355;49.044;8.686;2024-01-07T11:04:31;4.30;;;2.30;;
83423;SDS011;73355;49.044;8.686;2024-01-07T11:07:23;5.03;;;2.15;;
83423;SDS011;73355;49.044;8.686;2024-01-07T11:12:53;7.68;;;3.28;;
83423;SDS011;73355;49.044;8.686;2024-01-07T11:15:50;9.25;;;3.50;;
83423;SDS011;73355;49.044;8.686;2024-01-07T11:18:19;5.18;;;2.80;;
83423;SDS011;73355;49.044;8.686;2024-01-07T11:20:46;12.25;;;4.00;;
83423;SDS011;73355;49.044;8.686;2024-01-07T11:26:05;3.50;;;1.75;;
83423;SDS011;73355;49.044;8.686;2024-01-07T11:28:50;3.53;;;1.63;;
83423;SDS011;73355;49.044;8.686;2024-01-07T11:31:18;3.60;;;1.90;;
83423;SDS011;73355;49.044;8.686;2024-01-07T11:33:45;3.80;;;1.92;;
83423;SDS011;73355;49.044;8.686;2024-01-07T11:38:38;3.10;;;1.77;;
83423;SDS011;73355;49.044;8.686;2024-01-07T11:41:06;3.30;;;1.70;;
83423;SDS011;73355;49.044;8.686;2024-01-07T11:43:32;3.40;;;1.35;;
83423;SDS011;73355;49.044;8.686;2024-01-07T11:46:00;2.83;;;1.70;;
83423;SDS011;73355;49.044;8.686;2024-01-07T11:48:25;3.53;;;1.77;;
83423;SDS011;73355;49.044;8.686;2024-01-07T11:50:51;2.40;;;1.40;;
83423;SDS011;73355;49.044;8.686;2024-01-07T11:53:16;3.63;;;1.55;;
83423;SDS011;73355;49.044;8.686;2024-01-07T11:55:42;3.25;;;1.83;;
83423;SDS011;73355;49.044;8.686;2024-01-07T11:58:07;3.08;;;1.70;;
83423;SDS011;73355;49.044;8.686;2024-01-07T12:00:33;3.43;;;1.87;;
83423;SDS011;73355;49.044;8.686;2024-01-07T12:02:59;4.60;;;2.22;;
83423;SDS011;73355;49.044;8.686;2024-01-07T12:05:26;3.38;;;2.00;;
83423;SDS011;73355;49.044;8.686;2024-01-07T12:07:52;2.42;;;1.70;;
83423;SDS011;73355;49.044;8.686;2024-01-07T12:10:18;3.92;;;2.10;;
83423;SDS011;73355;49.044;8.686;2024-01-07T12:12:43;2.72;;;1.67;;
83423;SDS011;73355;49.044;8.686;2024-01-07T12:15:09;3.85;;;2.17;;
83423;SDS011;73355;49.044;8.686;2024-01-07T12:17:39;4.68;;;2.20;;
83423;SDS011;73355;49.044;8.686;2024-01-07T12:20:05;4.05;;;1.85;;
83423;SDS011;73355;49.044;8.686;2024-01-07T12:22:32;8.93;;;3.97;;
83423;SDS011;73355;49.044;8.686;2024-01-07T12:25:07;3.40;;;1.95;;
83423;SDS011;73355;49.044;8.686;2024-01-07T12:27:33;4.38;;;2.60;;
83423;SDS011;73355;49.044;8.686;2024-01-07T12:30:00;5.57;;;2.65;;
83423;SDS011;73355;49.044;8.686;2024-01-07T12:32:26;3.83;;;2.28;;
83423;SDS011;73355;49.044;8.686;2024-01-07T12:34:52;5.47;;;2.53;;
83423;SDS011;73355;49.044;8.686;2024-01-07T12:37:17;4.83;;;2.80;;
83423;SDS011;73355;49.044;8.686;2024-01-07T12:39:42;3.35;;;2.00;;
83423;SDS011;73355;49.044;8.686;2024-01-07T12:42:08;3.33;;;2.15;;
83423;SDS011;73355;49.044;8.686;2024-01-07T12:44:34;4.13;;;2.33;;
83423;SDS011;73355;49.044;8.686;2024-01-07T12:47:01;4.75;;;2.30;;
83423;SDS011;73355;49.044;8.686;2024-01-07T12:49:27;4.15;;;2.42;;
83423;SDS011;73355;49.044;8.686;2024-01-07T12:51:52;4.13;;;2.03;;
83423;SDS011;73355;49.044;8.686;2024-01-07T12:54:17;3.97;;;2.07;;
83423;SDS011;73355;49.044;8.686;2024-01-07T12:56:44;3.83;;;2.15;;
83423;SDS011;73355;49.044;8.686;2024-01-07T12:59:09;4.17;;;2.53;;
83423;SDS011;73355;49.044;8.686;2024-01-07T13:01:34;6.17;;;2.80;;
83423;SDS011;73355;49.044;8.686;2024-01-07T13:04:01;5.10;;;2.35;;
83423;SDS011;73355;49.044;8.686;2024-01-07T13:06:27;5.18;;;2.33;;
83423;SDS011;73355;49.044;8.686;2024-01-07T13:08:52;4.30;;;2.50;;
83423;SDS011;73355;49.044;8.686;2024-01-07T13:11:19;5.30;;;2.70;;
83423;SDS011;73355;49.044;8.686;2024-01-07T13:13:45;4.95;;;2.30;;
83423;SDS011;73355;49.044;8.686;2024-01-07T13:16:10;5.63;;;2.70;;
83423;SDS011;73355;49.044;8.686;2024-01-07T13:18:36;5.00;;;2.40;;
83423;SDS011;73355;49.044;8.686;2024-01-07T13:21:02;5.50;;;2.95;;
83423;SDS011;73355;49.044;8.686;2024-01-07T13:23:31;4.20;;;2.42;;
83423;SDS011;73355;49.044;8.686;2024-01-07T13:25:57;4.95;;;2.78;;
83423;SDS011;73355;49.044;8.686;2024-01-07T13:28:23;4.90;;;2.28;;
83423;SDS011;73355;49.044;8.686;2024-01-07T13:30:48;4.63;;;2.47;;
83423;SDS011;73355;49.044;8.686;2024-01-07T13:33:14;6.00;;;2.75;;
83423;SDS011;73355;49.044;8.686;2024-01-07T13:35:42;4.95;;;2.80;;
83423;SDS011;73355;49.044;8.686;2024-01-07T13:38:11;4.95;;;2.63;;
83423;SDS011;73355;49.044;8.686;2024-01-07T13:40:36;6.20;;;3.67;;
83423;SDS011;73355;49.044;8.686;2024-01-07T13:43:02;6.37;;;2.47;;
83423;SDS011;73355;49.044;8.686;2024-01-07T13:45:28;5.10;;;2.70;;
83423;SDS011;73355;49.044;8.686;2024-01-07T13:47:53;4.60;;;2.47;;
83423;SDS011;73355;49.044;8.686;2024-01-07T13:50:18;5.20;;;2.60;;
83423;SDS011;73355;49.044;8.686;2024-01-07T13:52:44;4.60;;;2.60;;
83423;SDS011;73355;49.044;8.686;2024-01-07T13:55:09;4.93;;;3.03;;
83423;SDS011;73355;49.044;8.686;2024-01-07T13:57:35;4.75;;;2.50;;
83423;SDS011;73355;49.044;8.686;2024-01-07T14:00:01;6.22;;;2.88;;
83423;SDS011;73355;49.044;8.686;2024-01-07T14:02:33;5.55;;;2.58;;
83423;SDS011;73355;49.044;8.686;2024-01-07T14:04:58;5.43;;;2.67;;
83423;SDS011;73355;49.044;8.686;2024-01-07T14:09:58;5.45;;;2.30;;
83423;SDS011;73355;49.044;8.686;2024-01-07T14:12:24;5.80;;;2.55;;
83423;SDS011;73355;49.044;8.686;2024-01-07T14:14:49;7.13;;;2.70;;
83423;SDS011;73355;49.044;8.686;2024-01-07T14:17:15;4.47;;;2.58;;
83423;SDS011;73355;49.044;8.686;2024-01-07T14:19:44;5.25;;;3.00;;
83423;SDS011;73355;49.044;8.686;2024-01-07T14:22:11;5.53;;;2.72;;
83423;SDS011;73355;49.044;8.686;2024-01-07T14:24:37;5.22;;;2.78;;
83423;SDS011;73355;49.044;8.686;2024-01-07T14:27:03;5.38;;;2.70;;
83423;SDS011;73355;49.044;8.686;2024-01-07T14:29:28;6.60;;;3.00;;
83423;SDS011;73355;49.044;8.686;2024-01-07T14:31:57;5.57;;;2.88;;
83423;SDS011;73355;49.044;8.686;2024-01-07T14:34:29;5.57;;;2.72;;
83423;SDS011;73355;49.044;8.686;2024-01-07T14:36:55;4.80;;;2.65;;
83423;SDS011;73355;49.044;8.686;2024-01-07T14:39:20;5.87;;;2.90;;
83423;SDS011;73355;49.044;8.686;2024-01-07T14:41:46;4.90;;;2.55;;
83423;SDS011;73355;49.044;8.686;2024-01-07T14:44:11;5.68;;;2.80;;
83423;SDS011;73355;49.044;8.686;2024-01-07T14:46:38;7.25;;;3.08;;
83423;SDS011;73355;49.044;8.686;2024-01-07T14:49:13;5.85;;;2.53;;
83423;SDS011;73355;49.044;8.686;2024-01-07T14:51:38;4.60;;;2.70;;
83423;SDS011;73355;49.044;8.686;2024-01-07T14:54:04;5.20;;;2.50;;
83423;SDS011;73355;49.044;8.686;2024-01-07T14:56:29;4.95;;;2.67;;
83423;SDS011;73355;49.044;8.686;2024-01-07T14:58:54;5.00;;;2.77;;
83423;SDS011;73355;49.044;8.686;2024-01-07T15:01:24;3.88;;;2.08;;
83423;SDS011;73355;49.044;8.686;2024-01-07T15:03:49;4.30;;;2.30;;